Bangkok (Don Mueang), Thailand

7:56 PM ICT on August 29, 2016 (GMT +0700)
Soi Ekkarat 15/2 | | Change Station

Elev 19 ft 13.96 °N, 100.60 °E | Updated 5 minutes ago

Light Rain
Light Rain
84.6 °F
Feels Like 97 °F
N
1.2
Wind Variable Wind from SSW
Gusts 1.9 mph

Today
High -- | Low -- °F
--% Chance of Precip.
Yesterday
High -- | Low -- °F
Precip. -- in
Pressure 29.71 in
Visibility 5.0 miles
Clouds Few 2000 ft
Scattered Clouds 3000 ft
Mostly Cloudy 10000 ft
Heat Index 97 °F
Dew Point 79 °F
Humidity 83%
Rainfall 1.03 in
Snow Depth Not available.
6:05 AM 6:30 PM
Waning Crescent, 9% visible
METAR VTBD 291230Z 22009KT 180V240 8000 -RA FEW020CB SCT030 BKN100 26/24 Q1006 RESHRA NOSIG
Pressure 29.71 in
Visibility 5.0 miles
Clouds Few 2000 ft
Scattered Clouds 3000 ft
Mostly Cloudy 10000 ft
Heat Index 97 °F
Dew Point 79 °F
Humidity 83%
Rainfall 1.03 in
Snow Depth Not available.
6:05 AM 6:30 PM
Waning Crescent, 9% visible
METAR VTBD 291230Z 22009KT 180V240 8000 -RA FEW020CB SCT030 BKN100 26/24 Q1006 RESHRA NOSIG

10-Day Weather Forecast

No radar image for this location.
×

Almanac

Astronomy

Aug. 29, 2016 Rise Set
Actual Time
Civil Twilight
Nautical Twilight
Astronomical Twilight
Moon
Length of Visible Light
Length of Day
Tomorrow will be .
, % of the Moon is Illuminated

Today's Extremes

Country Highs Country Lows

Community

WunderPhotos

Upload Photos

1,935,810 photos uploaded!

WunderBlog® & News

Nearby

Air Quality

  Air Quality AQ Index Pollutant
Not available.

Snow Depth

Station Depth Elevation

Earthquake Activity

City Distance Mag. Time & Date
Minimum magnitude displayed is 2.5.

Coastal Water Temperatures

Place Temperature

Stations

Nearby Weather Stations

Station Location Temp. Windchill Dew Point Humidity Wind Precip. Elev Updated Type